createdAt,value
2019-01-29T00:03:22.582Z,1.77
2019-01-29T00:07:26.807Z,1.10
2019-01-29T00:11:31.085Z,1.60
2019-01-29T00:15:35.326Z,1.83
2019-01-29T00:19:39.597Z,1.63
2019-01-29T00:23:43.892Z,1.10
2019-01-29T00:27:48.479Z,1.67
2019-01-29T00:31:52.764Z,1.30
2019-01-29T00:35:57.003Z,1.30
2019-01-29T00:40:02.208Z,1.10
2019-01-29T00:44:06.496Z,1.03
2019-01-29T00:48:10.787Z,1.30
2019-01-29T00:52:15.029Z,2.20
2019-01-29T00:56:19.312Z,1.30
2019-01-29T01:00:24.096Z,1.50
2019-01-29T01:04:28.354Z,1.03
2019-01-29T01:08:32.632Z,1.20
2019-01-29T01:12:36.916Z,1.97
2019-01-29T01:16:41.211Z,1.27
2019-01-29T01:20:45.468Z,1.83
2019-01-29T01:24:49.843Z,2.70
2019-01-29T01:28:54.128Z,1.40
2019-01-29T01:32:58.415Z,1.53
2019-01-29T01:37:02.783Z,1.43
2019-01-29T01:41:07.265Z,1.20
2019-01-29T01:45:11.922Z,1.40
2019-01-29T01:49:16.294Z,1.50
2019-01-29T01:53:21.187Z,1.93
2019-01-29T01:57:25.448Z,1.77
2019-01-29T02:01:29.766Z,2.43
2019-01-29T02:05:34.070Z,1.40
2019-01-29T02:09:38.310Z,2.00
2019-01-29T02:13:42.559Z,1.80
2019-01-29T02:17:46.907Z,2.20
2019-01-29T02:21:51.175Z,2.83
2019-01-29T02:25:55.811Z,2.50
2019-01-29T02:30:00.150Z,2.67
2019-01-29T02:34:04.524Z,3.60
2019-01-29T02:38:08.816Z,2.47
2019-01-29T02:42:13.117Z,2.43
2019-01-29T02:46:17.443Z,2.43
2019-01-29T02:50:21.794Z,2.93
2019-01-29T02:54:26.049Z,2.20
2019-01-29T02:58:30.346Z,3.30
2019-01-29T03:02:34.994Z,2.23
2019-01-29T03:06:39.277Z,2.87
2019-01-29T03:10:43.539Z,4.53
2019-01-29T03:14:47.816Z,2.87
2019-01-29T03:18:52.084Z,3.90
2019-01-29T03:22:56.316Z,2.70
2019-01-29T03:27:00.604Z,2.63
2019-01-29T03:31:04.841Z,3.83
2019-01-29T03:35:09.367Z,3.43
2019-01-29T03:39:13.550Z,3.10
2019-01-29T03:43:17.853Z,2.57
2019-01-29T03:47:22.107Z,2.50
2019-01-29T03:51:26.330Z,3.23
2019-01-29T03:55:30.630Z,2.83
2019-01-29T03:59:34.866Z,3.50
2019-01-29T04:03:39.446Z,2.77
2019-01-29T04:07:43.671Z,3.37
2019-01-29T04:11:47.965Z,2.90
2019-01-29T04:15:52.351Z,3.50
2019-01-29T04:19:56.768Z,3.40
2019-01-29T04:24:00.989Z,2.83
2019-01-29T04:28:05.255Z,3.73
2019-01-29T04:32:09.544Z,2.80
2019-01-29T04:36:13.820Z,3.10
2019-01-29T04:40:19.657Z,2.97
2019-01-29T04:44:23.963Z,2.43
2019-01-29T04:48:28.259Z,3.57
2019-01-29T04:52:32.499Z,2.53
2019-01-29T04:56:37.051Z,3.20
2019-01-29T05:00:41.375Z,3.00
2019-01-29T05:04:45.814Z,3.20
2019-01-29T05:08:50.954Z,2.40
2019-01-29T05:12:55.508Z,4.53
2019-01-29T05:16:59.736Z,2.60
2019-01-29T05:21:05.665Z,2.83
2019-01-29T05:25:10.526Z,2.90
2019-01-29T05:29:14.837Z,3.23
2019-01-29T05:33:19.154Z,3.27
2019-01-29T05:37:23.469Z,3.57
2019-01-29T05:41:27.789Z,3.10
2019-01-29T05:45:32.074Z,2.23
2019-01-29T05:49:36.592Z,3.20
2019-01-29T05:53:40.842Z,2.80
2019-01-29T05:57:45.067Z,3.10
2019-01-29T06:01:49.316Z,3.40
2019-01-29T06:05:53.578Z,3.47
2019-01-29T06:09:57.819Z,3.10
2019-01-29T06:14:02.074Z,2.83
2019-01-29T06:18:06.463Z,4.70
2019-01-29T06:22:10.707Z,4.13
2019-01-29T06:26:15.013Z,4.47
2019-01-29T06:30:20.488Z,4.50
2019-01-29T06:34:24.762Z,3.63
2019-01-29T06:38:29.275Z,3.93
2019-01-29T06:42:33.577Z,5.27
2019-01-29T06:46:38.261Z,3.90
2019-01-29T06:50:42.518Z,4.67
2019-01-29T06:54:46.746Z,4.97
2019-01-29T06:58:51.023Z,6.30
2019-01-29T07:02:55.401Z,4.30
2019-01-29T07:06:59.679Z,3.60
2019-01-29T07:11:03.881Z,3.80
2019-01-29T07:15:11.358Z,4.73
2019-01-29T07:19:27.369Z,3.70
2019-01-29T07:23:31.667Z,5.97
2019-01-29T07:27:35.943Z,3.40
2019-01-29T07:31:40.516Z,4.37
2019-01-29T07:35:44.811Z,4.23
2019-01-29T07:39:49.107Z,6.77
2019-01-29T07:43:53.360Z,4.77
2019-01-29T07:47:57.633Z,3.60
2019-01-29T07:52:01.885Z,5.63
2019-01-29T07:56:06.242Z,4.57
2019-01-29T08:00:11.268Z,4.47
2019-01-29T08:04:15.540Z,4.00
2019-01-29T08:08:19.814Z,4.53
2019-01-29T08:12:24.060Z,3.70
2019-01-29T08:16:28.336Z,5.67
2019-01-29T08:20:32.603Z,5.20
2019-01-29T08:24:36.861Z,6.07
2019-01-29T08:28:41.113Z,4.60
2019-01-29T08:32:45.395Z,4.40
2019-01-29T08:36:49.613Z,6.13
2019-01-29T08:40:53.890Z,4.30
2019-01-29T08:44:58.150Z,4.43
2019-01-29T08:49:02.465Z,6.73
2019-01-29T08:53:06.674Z,3.87
2019-01-29T08:57:10.928Z,4.47
2019-01-29T09:01:15.151Z,4.27
2019-01-29T09:05:19.562Z,4.83
2019-01-29T09:09:23.839Z,5.27
2019-01-29T09:13:28.447Z,5.03
2019-01-29T09:17:32.706Z,3.27
2019-01-29T09:21:36.955Z,3.60
2019-01-29T09:25:41.202Z,2.73
2019-01-29T09:29:45.454Z,4.60
2019-01-29T09:33:49.715Z,5.17
2019-01-29T09:37:54.001Z,3.07
2019-01-29T09:41:58.257Z,3.47
2019-01-29T09:46:02.841Z,3.37
2019-01-29T09:50:07.871Z,2.60
2019-01-29T09:54:12.633Z,3.60
2019-01-29T09:58:16.895Z,3.43
2019-01-29T10:02:21.139Z,3.23
2019-01-29T10:06:25.427Z,3.20
2019-01-29T10:10:29.961Z,1.80
2019-01-29T10:14:34.278Z,3.30
2019-01-29T10:18:38.599Z,2.90
2019-01-29T10:22:42.937Z,2.30
2019-01-29T10:26:47.185Z,5.50
2019-01-29T10:30:51.526Z,2.53
2019-01-29T10:34:55.997Z,4.53
2019-01-29T10:39:00.255Z,2.37
2019-01-29T10:43:04.619Z,3.20
2019-01-29T10:47:08.926Z,2.43
2019-01-29T10:51:13.163Z,1.50
2019-01-29T10:55:18.011Z,2.37
2019-01-29T10:59:22.282Z,1.93
2019-01-29T11:03:26.912Z,1.77
2019-01-29T11:07:31.469Z,2.30
2019-01-29T11:11:35.861Z,3.47
2019-01-29T11:15:41.787Z,1.60
2019-01-29T11:19:46.107Z,2.30
2019-01-29T11:23:50.638Z,3.80
2019-01-29T11:27:54.915Z,2.77
2019-01-29T11:31:59.175Z,1.97
2019-01-29T11:36:03.492Z,1.90
2019-01-29T11:40:11.599Z,2.10
2019-01-29T11:44:15.900Z,2.33
2019-01-29T11:48:20.204Z,2.40
2019-01-29T11:52:24.498Z,3.03
2019-01-29T11:56:28.802Z,2.70
2019-01-29T12:00:40.922Z,1.73
2019-01-29T12:04:45.141Z,2.20
2019-01-29T12:08:49.717Z,2.37
2019-01-29T12:12:53.946Z,3.50
2019-01-29T12:16:58.236Z,2.03
2019-01-29T12:21:02.460Z,2.40
2019-01-29T12:25:07.001Z,2.33
2019-01-29T12:29:11.258Z,3.27
2019-01-29T12:33:15.649Z,2.77
2019-01-29T12:37:19.899Z,3.73
2019-01-29T12:41:24.207Z,6.80
2019-01-29T12:45:28.533Z,2.50
2019-01-29T12:49:32.817Z,3.00
2019-01-29T12:53:43.600Z,3.17
2019-01-29T12:57:48.102Z,2.97
2019-01-29T13:01:52.648Z,2.83
2019-01-29T13:05:56.895Z,3.93
2019-01-29T13:10:01.482Z,3.53
2019-01-29T13:14:06.338Z,4.03
2019-01-29T13:18:12.134Z,4.13
2019-01-29T13:22:16.839Z,6.60
2019-01-29T13:26:21.145Z,5.63
2019-01-29T13:30:30.451Z,4.37
2019-01-29T13:34:34.843Z,4.47
2019-01-29T13:38:39.151Z,3.67
2019-01-29T13:42:43.442Z,4.17
2019-01-29T13:46:47.775Z,4.83
2019-01-29T13:50:57.542Z,3.83
2019-01-29T13:55:02.109Z,3.33
2019-01-29T13:59:06.462Z,4.40
2019-01-29T14:03:11.580Z,5.03
2019-01-29T14:07:16.159Z,5.73
2019-01-29T14:11:20.454Z,3.43
2019-01-29T14:15:35.787Z,4.23
2019-01-29T14:19:40.364Z,4.17
2019-01-29T14:23:44.672Z,5.43
2019-01-29T14:27:48.920Z,4.27
2019-01-29T14:31:53.558Z,4.33
2019-01-29T14:35:58.209Z,4.80
2019-01-29T14:40:13.676Z,5.03
2019-01-29T14:44:26.916Z,4.27
2019-01-29T14:48:31.159Z,5.13
2019-01-29T14:52:35.451Z,5.57
2019-01-29T14:56:39.699Z,5.53
2019-01-29T15:00:43.933Z,6.63
2019-01-29T15:04:48.257Z,5.60
2019-01-29T15:08:52.537Z,5.67
2019-01-29T15:12:56.791Z,3.67
2019-01-29T15:17:22.929Z,4.10
2019-01-29T15:21:27.201Z,5.87
2019-01-29T15:25:31.893Z,4.60
2019-01-29T15:29:36.202Z,3.27
2019-01-29T15:33:40.482Z,4.40
2019-01-29T15:37:44.750Z,3.73
2019-01-29T15:41:49.083Z,3.27
2019-01-29T15:45:53.354Z,5.07
2019-01-29T15:49:57.636Z,3.87
2019-01-29T15:54:01.988Z,2.60
2019-01-29T15:58:08.117Z,2.20
2019-01-29T16:02:12.399Z,4.00
2019-01-29T16:06:16.711Z,5.93
2019-01-29T16:10:24.191Z,4.47
2019-01-29T16:14:28.471Z,7.00
2019-01-29T16:18:33.028Z,3.83
2019-01-29T16:22:37.268Z,4.50
2019-01-29T16:26:41.655Z,6.07
2019-01-29T16:30:46.089Z,6.50
2019-01-29T16:34:51.023Z,4.70
2019-01-29T16:38:55.468Z,6.00
2019-01-29T16:42:59.852Z,5.50
2019-01-29T16:47:04.077Z,4.27
2019-01-29T16:51:08.481Z,7.27
2019-01-29T16:55:15.053Z,5.77
2019-01-29T16:59:19.331Z,4.43
2019-01-29T17:03:23.580Z,6.80
2019-01-29T17:07:27.966Z,6.37
2019-01-29T17:11:32.243Z,5.43
2019-01-29T17:15:36.645Z,5.20
2019-01-29T17:19:40.868Z,5.13
2019-01-29T17:23:45.235Z,6.73
2019-01-29T17:27:49.816Z,6.60
2019-01-29T17:31:54.063Z,6.37
2019-01-29T17:35:58.334Z,7.23
2019-01-29T17:40:02.694Z,7.90
2019-01-29T17:44:07.338Z,7.67
2019-01-29T17:48:11.687Z,6.33
2019-01-29T17:52:15.959Z,7.83
2019-01-29T17:56:20.192Z,6.97
2019-01-29T18:00:29.166Z,7.83
2019-01-29T18:04:33.495Z,6.30
2019-01-29T18:08:37.781Z,7.77
2019-01-29T18:12:42.059Z,7.57
2019-01-29T18:16:46.607Z,6.27
2019-01-29T18:20:52.227Z,8.00
2019-01-29T18:24:56.627Z,9.13
2019-01-29T18:29:01.942Z,10.47
2019-01-29T18:33:06.624Z,12.57
2019-01-29T18:37:10.901Z,8.33
2019-01-29T18:41:15.239Z,10.23
2019-01-29T18:45:19.531Z,10.77
2019-01-29T18:49:24.091Z,9.80
2019-01-29T18:53:28.438Z,9.93
2019-01-29T18:57:32.694Z,8.27
2019-01-29T19:01:37.075Z,8.80
2019-01-29T19:05:41.428Z,11.77
2019-01-29T19:09:46.065Z,10.50
2019-01-29T19:13:50.371Z,10.17
2019-01-29T19:17:54.892Z,7.73
2019-01-29T19:21:59.358Z,11.57
2019-01-29T19:26:03.609Z,13.57
2019-01-29T19:30:17.288Z,9.60
2019-01-29T19:34:21.563Z,10.13
2019-01-29T19:38:25.864Z,10.80
2019-01-29T19:42:30.147Z,13.23
2019-01-29T19:46:34.471Z,12.07
2019-01-29T19:50:38.762Z,12.03
2019-01-29T19:54:43.067Z,11.93
2019-01-29T19:58:47.294Z,16.60
2019-01-29T20:02:51.635Z,13.47
2019-01-29T20:06:55.887Z,11.60
2019-01-29T20:11:00.230Z,12.17
2019-01-29T20:15:05.454Z,11.97
2019-01-29T20:19:09.768Z,12.37
2019-01-29T20:23:14.050Z,10.93
2019-01-29T20:27:18.381Z,13.37
2019-01-29T20:31:22.719Z,14.20
2019-01-29T20:35:27.376Z,11.43
2019-01-29T20:39:34.924Z,16.40
2019-01-29T20:43:37.683Z,14.50
2019-01-29T20:47:42.516Z,14.80
2019-01-29T20:51:46.773Z,14.67
2019-01-29T20:55:51.338Z,14.00
2019-01-29T20:59:55.607Z,15.67
2019-01-29T21:03:59.904Z,13.87
2019-01-29T21:08:04.757Z,15.13
2019-01-29T21:12:09.020Z,16.97
2019-01-29T21:16:13.357Z,14.70
2019-01-29T21:20:19.726Z,13.40
2019-01-29T21:24:24.263Z,17.40
2019-01-29T21:28:28.536Z,17.07
2019-01-29T21:32:32.816Z,15.87
2019-01-29T21:36:37.035Z,15.10
2019-01-29T21:40:41.653Z,14.53
2019-01-29T21:44:45.926Z,14.97
2019-01-29T21:48:50.193Z,15.43
2019-01-29T21:52:54.447Z,16.70
2019-01-29T21:56:58.741Z,14.93
2019-01-29T22:01:03.330Z,12.43
2019-01-29T22:05:10.237Z,13.60
2019-01-29T22:09:14.557Z,15.17
2019-01-29T22:13:18.828Z,16.20
2019-01-29T22:17:23.325Z,17.83
2019-01-29T22:21:27.588Z,14.73
2019-01-29T22:25:31.913Z,17.70
2019-01-29T22:29:36.180Z,16.40
2019-01-29T22:33:40.465Z,14.73
2019-01-29T22:37:44.691Z,14.40
2019-01-29T22:41:49.239Z,19.57
2019-01-29T22:45:53.515Z,19.53
2019-01-29T22:49:57.783Z,13.40
2019-01-29T22:54:02.072Z,13.63
2019-01-29T22:58:06.924Z,17.00
2019-01-29T23:02:11.584Z,16.70
2019-01-29T23:06:25.782Z,16.47
2019-01-29T23:10:30.077Z,18.17
2019-01-29T23:14:34.330Z,16.53
2019-01-29T23:18:38.616Z,18.17
2019-01-29T23:22:42.890Z,13.27
2019-01-29T23:26:47.110Z,14.40
2019-01-29T23:30:51.427Z,13.60
2019-01-29T23:34:55.648Z,12.57
2019-01-29T23:38:59.946Z,13.53
2019-01-29T23:43:04.752Z,13.03
2019-01-29T23:47:09.059Z,13.37
2019-01-29T23:51:13.396Z,12.90
2019-01-29T23:55:17.682Z,13.03
2019-01-29T23:59:22.275Z,13.60
